Weather observations for the past three days for
St. Louis Downtown Airport
Metric (Imperial)
Date Time (cdt) Wind (kph) Vis. (km) Weather Sky Cond. Temperature (ºC) Relative Humidity Wind Chill (°C) Heat Index (°C) Pressure Precipitation (cm)
Air Dwpt 6 hour altimeter (cm) sea level (mb) 1 hr 3 hr 6 hr
Max. Min.
05 11:53 Calm 16.09 Fair CLR 36.1 21.7 43% 41 76.05 1013.3
05 10:53 Vrbl 11 16.09 Fair CLR 33.9 22.2 50% 38 76.07 1013.7
05 09:53 NW 6 16.09 A Few Clouds FEW090 31.7 22.2 57% 36 76.07 1013.8
05 08:53 W 6 16.09 Fair CLR 30 22.2 63% 33 76.07 1013.7
05 07:53 Calm 16.09 Fair CLR 27.2 23.3 79% 30 76.05 1013.3
05 06:53 Calm 16.09 A Few Clouds FEW085 23.9 22.2 26.1 23.3 90% 23 76.02 1012.8
05 05:53 Calm 16.09 Fair CLR 23.3 22.2 94% 75.97 1012.5
05 04:53 S 6 16.09 Mostly Cloudy BKN085 24.4 22.8 91% 24 76 1012.6
05 03:53 Calm 16.09 Fair CLR 24.4 22.2 88% 25 76 1012.6
05 02:53 Calm 16.09 Mostly Cloudy BKN080 25 22.8 88% 26 76.02 1012.9
05 01:53 Calm 16.09 A Few Clouds FEW085 25 22.8 88% 26 76.02 1013.0
05 00:53 SE 6 16.09 Partly Cloudy SCT085 25.6 22.2 34.4 25.6 82% 27 76.02 1013.2
04 23:53 Calm 16.09 Fair CLR 25.6 22.2 82% 27 76.02 1013.1
04 22:53 Calm 16.09 Fair CLR 27.2 22.8 77% 30 76.02 1012.9
04 21:53 S 7 16.09 Fair CLR 28.9 22.2 67% 32 76.02 1013.0
04 20:53 S 6 16.09 Fair CLR 29.4 22.8 68% 33 75.97 1012.4
04 19:53 S 7 16.09 Fair CLR 30 22.8 65% 34 75.95 1011.9
04 18:53 SE 7 16.09 Fair CLR 34.4 22.2 37.8 34.4 49% 39 75.92 1011.8
04 17:53 S 7 16.09 Fair CLR 37.2 20.6 38% 41 75.92 1011.6
04 16:53 Calm 16.09 Fair CLR 37.8 20 35% 41 75.95 1011.9
04 15:53 SW 11 16.09 Fair CLR 37.2 20 37% 40 76 1012.6
04 14:53 Calm 16.09 Fair CLR 36.7 20 38% 40 76.05 1013.5
04 13:53 Calm 16.09 A Few Clouds FEW080 36.7 20.6 39% 40 76.1 1014.0
04 12:53 SW 11 16.09 A Few Clouds FEW065 36.7 21.1 37.2 23.3 40% 41 76.15 1014.5
04 11:53 Vrbl 11 16.09 Fair CLR 36.1 21.1 42% 40 76.17 1014.9
04 10:53 Vrbl 9 16.09 Fair CLR 35 21.7 46% 39 76.2 1015.1
04 09:53 Vrbl 7 16.09 Fair CLR 32.2 22.8 58% 37 76.17 1015.0
04 08:53 SW 6 16.09 Fair CLR 29.4 22.2 65% 33 76.17 1015.0
04 07:53 Vrbl 6 16.09 Fair CLR 27.2 21.7 72% 29 76.17 1015.0
04 06:53 Calm 16.09 Fair CLR 23.3 21.1 26.1 22.8 88% 76.15 1014.6
04 05:53 Calm 16.09 Fair CLR 23.3 21.7 91% 76.1 1014.0
04 04:53 Calm 16.09 Fair CLR 23.3 21.7 91% 76.07 1013.7
04 03:53 S 6 16.09 Fair CLR 24.4 21.7 85% 25 76.05 1013.5
04 02:53 S 6 16.09 Fair CLR 25 21.7 82% 26 76.02 1013.2
04 01:53 SE 7 16.09 Fair CLR 26.1 22.2 79% 28 76.05 1013.3
04 00:53 Calm 16.09 Fair CLR 26.1 22.2 33.9 25.6 79% 28 76.05 1013.3
03 23:53 SE 6 16.09 Fair CLR 27.2 21.7 72% 29 76.05 1013.2
03 22:53 SE 6 16.09 Fair CLR 28.9 21.7 65% 32 76.05 1013.2
03 21:53 S 7 16.09 Fair CLR 29.4 21.7 63% 32 76.02 1013.1
03 20:53 S 7 16.09 Fair CLR 29.4 21.7 63% 32 76 1012.7
03 19:53 S 7 16.09 Fair CLR 31.7 21.7 55% 35 75.97 1012.2
03 18:53 SE 7 16.09 Fair CLR 33.9 21.7 37.8 33.9 49% 38 75.95 1011.9
03 17:53 S 7 16.09 A Few Clouds FEW075 36.1 21.7 43% 41 75.95 1011.9
03 16:53 SE 11 16.09 Fair CLR 37.2 20 37% 40 75.95 1011.9
03 15:53 SW 7 16.09 Fair CLR 37.8 20 35% 41 75.97 1012.4
03 14:53 W 7 16.09 A Few Clouds FEW070 36.7 20 38% 40 76.02 1012.9
03 13:53 SW 11 16.09 A Few Clouds FEW060 36.7 19.4 36% 39 76.07 1013.5
03 12:53 Vrbl 11 16.09 A Few Clouds FEW035 36.1 21.1 36.1 24.4 42% 40 76.12 1014.4
03 11:53 W 11 16.09 Fair CLR 35.6 21.1 43% 39 76.15 1014.8
03 10:53 Vrbl 9 16.09 Fair CLR 33.9 22.2 50% 38 76.17 1015.1
03 09:53 Vrbl 7 16.09 Fair CLR 31.7 21.7 55% 35 76.17 1015.1
03 08:53 SW 9 16.09 Fair CLR 29.4 22.2 65% 33 76.2 1015.4
03 07:53 Calm 16.09 Fair CLR 27.2 21.7 72% 29 76.2 1015.3
03 06:53 S 6 16.09 Fair CLR 23.9 21.1 26.1 22.8 84% 24 76.17 1015.0
03 05:53 Calm 16.09 Fair CLR 23.9 21.1 84% 24 76.15 1014.7
03 04:53 S 6 16.09 Fair CLR 23.3 21.1 88% 76.12 1014.4
03 03:53 Calm 16.09 Fair CLR 23.3 21.7 91% 76.12 1014.4
03 02:53 Calm 16.09 Fair CLR 24.4 21.1 82% 25 76.12 1014.2
03 01:53 S 7 16.09 Fair CLR 26.1 21.1 74% 28 76.12 1014.1
03 00:53 Calm 16.09 Fair CLR 26.1 21.7 33.3 25.6 77% 28 76.12 1014.3
02 23:53 Calm 16.09 Fair CLR 25.6 21.7 79% 27 76.1 1014.2
02 22:53 S 6 16.09 Fair CLR 27.8 21.1 67% 30 76.1 1014.2
02 21:53 S 7 16.09 Fair CLR 30 21.1 59% 33 76.1 1014.0
02 20:53 S 7 16.09 Fair CLR 30.6 21.7 59% 34 76.07 1013.7
02 19:53 S 9 16.09 Fair CLR 31.7 21.1 53% 35 76.05 1013.2
02 18:53 SE 11 16.09 Fair CLR 33.3 21.1 38.3 33.3 49% 37 76.02 1013.1
02 17:53 SE 15 G 28 16.09 Fair CLR 36.1 20 39% 39 76.02 1012.9
02 16:53 Vrbl 9 16.09 Fair CLR 37.8 18.3 32% 40 76.02 1013.1
02 15:53 S 7 16.09 Partly Cloudy SCT080 36.7 18.3 34% 38 76.07 1013.6
02 14:53 Calm 16.09 Mostly Cloudy BKN075 37.8 20 35% 41 76.12 1014.1
02 13:53 Vrbl 9 16.09 Partly Cloudy SCT070 36.7 21.1 40% 41 76.17 1014.9
02 12:53 W 7 16.09 Fair CLR 36.1 20 36.7 23.3 39% 39 76.2 1015.4
Date Time (cdt) Wind (kph) Vis. (km) Weather Sky Cond. Air Dwpt Max. Min. Relative Humidity Wind Chill (°C) Heat Index (°C) altimeter (cm) sea level (mb) 1 hr 3 hr 6 hr
6 hour
Temperature (ºC) Pressure Precipitation (cm)